createdAt,value
2019-03-23T00:01:18.886Z,99.90
2019-03-23T00:06:30.817Z,99.90
2019-03-23T00:11:33.674Z,99.90
2019-03-23T00:16:40.065Z,99.90
2019-03-23T00:21:46.494Z,99.90
2019-03-23T00:26:52.781Z,99.90
2019-03-23T00:31:59.566Z,99.90
2019-03-23T00:37:05.572Z,99.90
2019-03-23T00:42:11.788Z,99.90
2019-03-23T00:47:17.965Z,99.90
2019-03-23T00:52:23.870Z,99.90
2019-03-23T00:57:29.661Z,99.90
2019-03-23T01:02:35.578Z,99.90
2019-03-23T01:07:41.427Z,99.90
2019-03-23T01:12:48.339Z,99.90
2019-03-23T01:17:54.191Z,99.90
2019-03-23T01:23:00.155Z,99.90
2019-03-23T01:28:06.016Z,99.90
2019-03-23T01:33:11.891Z,99.90
2019-03-23T01:38:17.743Z,99.90
2019-03-23T01:43:23.603Z,99.90
2019-03-23T01:48:29.558Z,99.90
2019-03-23T01:53:35.407Z,99.90
2019-03-23T01:58:41.262Z,99.90
2019-03-23T02:03:47.111Z,99.90
2019-03-23T02:08:53.192Z,99.90
2019-03-23T02:13:59.056Z,99.90
2019-03-23T02:19:04.987Z,99.90
2019-03-23T02:24:10.834Z,99.90
2019-03-23T02:29:16.687Z,99.90
2019-03-23T02:34:22.574Z,99.90
2019-03-23T02:39:28.410Z,99.90
2019-03-23T02:44:34.569Z,99.90
2019-03-23T02:49:40.447Z,99.90
2019-03-23T02:54:46.297Z,99.90
2019-03-23T02:59:52.173Z,99.90
2019-03-23T03:04:58.081Z,99.90
2019-03-23T03:10:04.257Z,99.90
2019-03-23T03:15:10.448Z,99.90
2019-03-23T03:20:16.337Z,99.90
2019-03-23T03:25:22.192Z,99.90
2019-03-23T03:30:28.052Z,99.90
2019-03-23T03:35:33.898Z,99.90
2019-03-23T03:40:40.296Z,99.90
2019-03-23T03:45:46.124Z,99.90
2019-03-23T03:50:52.020Z,99.90
2019-03-23T03:55:57.876Z,99.90
2019-03-23T04:01:03.772Z,99.90
2019-03-23T04:06:09.625Z,99.90
2019-03-23T04:11:15.469Z,99.90
2019-03-23T04:16:21.315Z,99.90
2019-03-23T04:21:27.157Z,99.90
2019-03-23T04:26:33.015Z,99.90
2019-03-23T04:31:38.903Z,99.90
2019-03-23T04:36:44.775Z,99.90
2019-03-23T04:41:50.608Z,99.90
2019-03-23T04:46:56.436Z,99.90
2019-03-23T04:52:02.280Z,99.90
2019-03-23T04:57:08.118Z,99.90
2019-03-23T05:02:13.951Z,99.90
2019-03-23T05:07:19.802Z,99.90
2019-03-23T05:12:25.621Z,99.90
2019-03-23T05:17:31.480Z,99.90
2019-03-23T05:22:37.322Z,99.90
2019-03-23T05:27:43.279Z,99.90
2019-03-23T05:32:49.182Z,99.90
2019-03-23T05:37:55.147Z,99.90
2019-03-23T05:43:01.035Z,99.90
2019-03-23T05:48:06.867Z,99.90
2019-03-23T05:53:12.711Z,99.90
2019-03-23T05:58:18.559Z,99.90
2019-03-23T06:03:24.440Z,99.90
2019-03-23T06:08:31.366Z,99.90
2019-03-23T06:13:37.237Z,99.90
2019-03-23T06:18:43.100Z,99.90
2019-03-23T06:23:48.959Z,99.90
2019-03-23T06:28:54.856Z,99.90
2019-03-23T06:34:00.754Z,99.90
2019-03-23T06:39:08.270Z,99.90
2019-03-23T06:44:14.111Z,99.90
2019-03-23T06:49:19.977Z,99.90
2019-03-23T06:54:25.833Z,99.90
2019-03-23T06:59:31.664Z,99.90
2019-03-23T07:04:37.520Z,99.90
2019-03-23T07:09:43.411Z,99.90
2019-03-23T07:14:49.268Z,99.90
2019-03-23T07:19:55.120Z,99.90
2019-03-23T07:25:00.973Z,99.90
2019-03-23T07:30:09.487Z,99.90
2019-03-23T07:35:16.235Z,99.90
2019-03-23T07:40:22.088Z,99.90
2019-03-23T07:45:27.955Z,99.90
2019-03-23T07:50:33.914Z,99.90
2019-03-23T07:55:39.762Z,99.90
2019-03-23T08:00:45.643Z,99.90
2019-03-23T08:05:51.494Z,99.90
2019-03-23T08:10:57.342Z,99.90
2019-03-23T08:16:03.226Z,99.90
2019-03-23T08:21:09.091Z,99.90
2019-03-23T08:26:14.939Z,99.90
2019-03-23T08:31:20.834Z,99.90
2019-03-23T08:36:26.717Z,99.90
2019-03-23T08:41:32.582Z,99.90
2019-03-23T08:46:38.467Z,99.90
2019-03-23T08:51:44.351Z,99.90
2019-03-23T08:56:50.304Z,99.90
2019-03-23T09:01:56.163Z,99.90
2019-03-23T09:07:02.032Z,99.90
2019-03-23T09:12:08.450Z,99.90
2019-03-23T09:17:14.318Z,99.90
2019-03-23T09:22:20.356Z,99.90
2019-03-23T09:27:34.316Z,99.90
2019-03-23T09:32:40.868Z,99.90
2019-03-23T09:37:47.243Z,99.90
2019-03-23T09:42:53.778Z,99.90
2019-03-23T09:48:00.098Z,99.90
2019-03-23T09:53:06.318Z,99.90
2019-03-23T09:58:12.450Z,99.90
2019-03-23T10:03:19.450Z,99.90
2019-03-23T10:08:26.151Z,99.30
2019-03-23T10:13:32.147Z,97.40
2019-03-23T10:18:38.102Z,97.60
2019-03-23T10:23:44.329Z,95.90
2019-03-23T10:28:50.459Z,92.60
2019-03-23T10:33:57.336Z,91.30
2019-03-23T10:39:04.918Z,88.60
2019-03-23T10:44:11.690Z,87.50
2019-03-23T10:49:18.007Z,87.80
2019-03-23T10:54:25.618Z,84.00
2019-03-23T10:59:32.146Z,84.80
2019-03-23T11:04:38.971Z,77.00
2019-03-23T11:09:44.948Z,72.90
2019-03-23T11:14:51.908Z,72.00
2019-03-23T11:19:58.964Z,70.40
2019-03-23T11:25:07.269Z,71.30
2019-03-23T11:30:15.214Z,65.90
2019-03-23T11:35:21.727Z,64.00
2019-03-23T11:40:28.667Z,65.80
2019-03-23T11:45:34.934Z,64.60
2019-03-23T11:50:41.682Z,66.30
2019-03-23T11:55:48.254Z,62.30
2019-03-23T12:00:54.955Z,61.00
2019-03-23T12:06:02.287Z,58.90
2019-03-23T12:11:09.046Z,54.70
2019-03-23T12:16:16.024Z,54.70
2019-03-23T12:21:22.278Z,55.00
2019-03-23T12:26:29.582Z,52.30
2019-03-23T12:31:41.380Z,51.00
2019-03-23T12:36:48.014Z,49.30
2019-03-23T12:41:55.709Z,47.60
2019-03-23T12:47:02.708Z,48.30
2019-03-23T12:52:12.005Z,48.20
2019-03-23T12:57:22.643Z,47.00
2019-03-23T13:02:31.383Z,49.60
2019-03-23T13:07:40.304Z,45.20
2019-03-23T13:12:47.853Z,45.60
2019-03-23T13:17:55.768Z,44.80
2019-03-23T13:23:05.725Z,44.20
2019-03-23T13:28:17.050Z,44.10
2019-03-23T13:33:31.821Z,41.00
2019-03-23T13:38:47.295Z,42.10
2019-03-23T13:43:57.101Z,43.50
2019-03-23T13:49:16.413Z,43.20
2019-03-23T13:54:27.145Z,42.30
2019-03-23T13:59:41.555Z,46.40
2019-03-23T14:04:50.311Z,47.80
2019-03-23T14:09:57.835Z,45.00
2019-03-23T14:15:07.918Z,41.10
2019-03-23T14:20:17.011Z,42.10
2019-03-23T14:25:23.543Z,41.10
2019-03-23T14:30:29.461Z,40.90
2019-03-23T14:35:40.673Z,39.70
2019-03-23T14:40:50.123Z,38.70
2019-03-23T14:46:03.487Z,38.20
2019-03-23T14:51:19.501Z,39.00
2019-03-23T14:56:31.550Z,39.60
2019-03-23T15:01:39.931Z,38.20
2019-03-23T15:06:54.672Z,38.10
2019-03-23T15:12:14.553Z,36.80
2019-03-23T15:17:19.856Z,38.40
2019-03-23T15:22:29.825Z,37.40
2019-03-23T15:27:39.593Z,39.00
2019-03-23T15:32:54.031Z,40.00
2019-03-23T15:38:06.949Z,39.00
2019-03-23T15:43:32.920Z,37.30
2019-03-23T15:48:43.382Z,37.30
2019-03-23T15:53:52.450Z,40.20
2019-03-23T15:59:03.858Z,39.60
2019-03-23T16:04:11.219Z,40.30
2019-03-23T16:09:19.147Z,42.10
2019-03-23T16:14:26.862Z,43.50
2019-03-23T16:19:34.347Z,44.30
2019-03-23T16:24:40.216Z,47.40
2019-03-23T16:29:46.300Z,48.90
2019-03-23T16:34:52.280Z,50.20
2019-03-23T16:39:59.052Z,51.40
2019-03-23T16:45:06.347Z,51.10
2019-03-23T16:50:12.788Z,51.70
2019-03-23T16:55:19.113Z,52.00
2019-03-23T17:00:38.956Z,52.70
2019-03-23T17:05:45.396Z,54.40
2019-03-23T17:10:51.407Z,53.80
2019-03-23T17:15:57.335Z,54.60
2019-03-23T17:21:03.559Z,56.80
2019-03-23T17:26:09.508Z,57.40
2019-03-23T17:31:15.903Z,58.90
2019-03-23T17:36:21.847Z,60.90
2019-03-23T17:41:27.736Z,62.70
2019-03-23T17:46:33.636Z,64.50
2019-03-23T17:51:39.766Z,66.50
2019-03-23T17:56:45.798Z,68.00
2019-03-23T18:01:52.124Z,68.20
2019-03-23T18:06:58.271Z,69.00
2019-03-23T18:12:04.471Z,69.50
2019-03-23T18:17:10.421Z,69.80
2019-03-23T18:22:17.652Z,70.30
2019-03-23T18:27:23.879Z,69.20
2019-03-23T18:32:29.947Z,69.90
2019-03-23T18:37:35.822Z,70.50
2019-03-23T18:42:44.546Z,70.70
2019-03-23T18:47:50.482Z,72.20
2019-03-23T18:52:56.447Z,72.70
2019-03-23T18:58:02.326Z,73.20
2019-03-23T19:03:08.534Z,73.90
2019-03-23T19:08:14.476Z,74.20
2019-03-23T19:13:20.319Z,74.30
2019-03-23T19:18:26.235Z,75.20
2019-03-23T19:23:34.583Z,76.10
2019-03-23T19:28:42.971Z,77.90
2019-03-23T19:33:49.985Z,79.00
2019-03-23T19:38:56.018Z,80.40
2019-03-23T19:44:01.978Z,80.30
2019-03-23T19:49:07.847Z,79.40
2019-03-23T19:54:13.760Z,79.70
2019-03-23T19:59:20.150Z,80.10
2019-03-23T20:04:27.043Z,81.30
2019-03-23T20:09:33.542Z,83.30
2019-03-23T20:14:41.745Z,91.80
2019-03-23T20:19:48.778Z,99.90
2019-03-23T20:24:56.041Z,99.90
2019-03-23T20:30:03.738Z,99.90
2019-03-23T20:35:11.615Z,99.90
2019-03-23T20:40:17.576Z,99.90
2019-03-23T20:45:30.623Z,99.90
2019-03-23T20:50:39.486Z,99.90
2019-03-23T20:55:46.910Z,99.90
2019-03-23T21:00:53.568Z,99.90
2019-03-23T21:05:59.542Z,99.90
2019-03-23T21:11:05.774Z,99.90
2019-03-23T21:16:14.500Z,99.90
2019-03-23T21:21:20.789Z,99.90
2019-03-23T21:26:26.679Z,99.90
2019-03-23T21:31:32.650Z,99.90
2019-03-23T21:36:40.061Z,99.90
2019-03-23T21:41:47.969Z,99.90
2019-03-23T21:46:54.207Z,99.90
2019-03-23T21:52:00.184Z,99.90
2019-03-23T21:57:06.086Z,99.90
2019-03-23T22:02:18.094Z,99.90
2019-03-23T22:07:25.819Z,99.90
2019-03-23T22:12:33.289Z,99.90
2019-03-23T22:17:39.302Z,99.90
2019-03-23T22:22:49.083Z,99.90
2019-03-23T22:27:55.438Z,99.90
2019-03-23T22:33:01.752Z,99.90
2019-03-23T22:38:14.332Z,99.90
2019-03-23T22:43:20.439Z,99.90
2019-03-23T22:48:28.326Z,99.90
2019-03-23T22:53:34.862Z,99.90
2019-03-23T22:58:40.879Z,99.90
2019-03-23T23:03:46.851Z,99.90
2019-03-23T23:08:52.816Z,99.90
2019-03-23T23:13:58.776Z,99.90
2019-03-23T23:19:04.688Z,99.90
2019-03-23T23:24:10.558Z,99.90
2019-03-23T23:29:16.478Z,99.90
2019-03-23T23:34:22.405Z,99.90
2019-03-23T23:39:28.326Z,99.90
2019-03-23T23:44:34.208Z,99.90
2019-03-23T23:49:40.129Z,99.90
2019-03-23T23:54:45.966Z,99.90
2019-03-23T23:59:51.812Z,99.90
